Time;durP1;ratioP1;P1;durP2;ratioP2;P2;SDS_P1;SDS_P2;PMS_P1;PMS_P2;Temp;Humidity;BMP_temperature;BMP_pressure;BME280_temperature;BME280_humidity;BME280_pressure;Samples;Min_cycle;Max_cycle;Signal;HPM_P1;HPM_P2
2023/12/30 00:00:25;;;;;;;;;;;6.70;99.90;;;;;;5075063;28;19932;-34
2023/12/30 00:02:52;;;;;;;;;;;6.70;99.90;;;;;;5072382;28;19924;-34
2023/12/30 00:05:19;;;;;;;;;;;6.70;99.90;;;;;;5088568;28;19975;-33
2023/12/30 00:07:47;;;;;;;;;;;6.70;99.90;;;;;;5072751;28;19932;-33
2023/12/30 00:10:13;;;;;;;;;;;6.70;99.90;;;;;;5075782;28;19967;-34
2023/12/30 00:12:40;;;;;;;;;;;6.60;99.90;;;;;;5087730;28;20021;-34
2023/12/30 00:15:08;;;;;;;;;;;6.60;99.90;;;;;;5073627;28;19977;-35
2023/12/30 00:17:34;;;;;;;;;;;6.60;99.90;;;;;;5071839;28;20369;-34
2023/12/30 00:20:01;;;;;;;;;;;6.60;99.90;;;;;;5063856;28;20022;-34
2023/12/30 00:22:27;;;;;;;;;;;6.60;99.90;;;;;;5087293;28;19924;-33
2023/12/30 00:24:55;;;;;;;;;;;6.50;99.90;;;;;;5089550;28;20033;-32
2023/12/30 00:27:22;;;;;;;;;;;6.50;99.90;;;;;;5070981;28;20435;-34
2023/12/30 00:29:49;;;;;;;;;;;6.40;99.90;;;;;;5092290;28;19924;-32
2023/12/30 00:32:16;;;;;;;;;;;6.40;99.90;;;;;;5092353;28;20015;-33
2023/12/30 00:34:43;;;;;;;;;;;6.40;99.90;;;;;;5073285;28;20338;-32
2023/12/30 00:37:10;;;;;;;;;;;6.40;99.90;;;;;;5068838;28;20022;-34
2023/12/30 00:39:37;;;;;;;;;;;6.30;99.90;;;;;;5068283;28;19950;-35
2023/12/30 00:42:06;;;;;;;;;;;6.30;99.90;;;;;;5071168;28;19924;-34
2023/12/30 00:44:32;;;;;;;;;;;6.30;99.90;;;;;;5056287;28;19942;-34
2023/12/30 00:46:59;;;;;;;;;;;6.30;99.90;;;;;;5059032;28;19978;-35
2023/12/30 00:49:26;;;;;;;;;;;6.30;99.90;;;;;;5042343;28;19924;-35
2023/12/30 00:51:52;;;;;;;;;;;6.30;99.90;;;;;;5062731;28;20339;-33
2023/12/30 00:54:19;;;;;;;;;;;6.20;99.90;;;;;;5066747;28;19937;-34
2023/12/30 00:56:46;;;;;;;;;;;6.30;99.90;;;;;;5062264;28;19925;-33
2023/12/30 00:59:14;;;;;;;;;;;6.30;99.90;;;;;;5071701;28;19955;-34
2023/12/30 01:01:40;;;;;;;;;;;6.30;99.90;;;;;;5070918;28;19925;-33
2023/12/30 01:04:07;;;;;;;;;;;6.30;99.90;;;;;;5069558;28;19924;-33
2023/12/30 01:06:34;;;;;;;;;;;6.30;99.90;;;;;;5054174;28;19928;-34
2023/12/30 01:09:01;;;;;;;;;;;6.20;99.90;;;;;;5069435;28;19970;-36
2023/12/30 01:11:28;;;;;;;;;;;6.20;99.90;;;;;;5052755;28;20385;-33
2023/12/30 01:13:54;;;;;;;;;;;6.20;99.90;;;;;;5060313;28;20335;-34
2023/12/30 01:16:22;;;;;;;;;;;6.20;99.90;;;;;;5052875;28;20385;-34
2023/12/30 01:18:49;;;;;;;;;;;6.20;99.90;;;;;;5054712;28;19924;-35
2023/12/30 01:21:16;;;;;;;;;;;6.10;99.90;;;;;;5051727;28;19925;-34
2023/12/30 01:23:42;;;;;;;;;;;6.10;99.90;;;;;;5046652;28;19932;-33
2023/12/30 01:26:09;;;;;;;;;;;6.10;99.90;;;;;;5048990;28;19995;-33
2023/12/30 01:28:36;;;;;;;;;;;6.10;99.90;;;;;;5052879;28;19977;-34
2023/12/30 01:31:03;;;;;;;;;;;6.10;99.90;;;;;;5052763;28;20292;-34
2023/12/30 01:33:31;;;;;;;;;;;6.10;99.90;;;;;;5043107;28;19925;-34
2023/12/30 01:35:58;;;;;;;;;;;6.00;99.90;;;;;;5068933;28;19925;-35
2023/12/30 01:38:24;;;;;;;;;;;6.10;99.90;;;;;;5055017;28;20296;-34
2023/12/30 01:40:53;;;;;;;;;;;6.10;99.90;;;;;;5052089;28;19925;-33
2023/12/30 01:43:23;;;;;;;;;;;6.00;99.90;;;;;;5052825;28;19977;-34
2023/12/30 01:45:50;;;;;;;;;;;6.00;99.90;;;;;;5052720;28;19925;-34
2023/12/30 01:48:16;;;;;;;;;;;6.00;99.90;;;;;;5053477;28;19932;-36
2023/12/30 01:50:44;;;;;;;;;;;6.00;99.90;;;;;;5052043;28;20292;-33
2023/12/30 01:53:11;;;;;;;;;;;6.00;99.90;;;;;;5050405;28;19986;-35
2023/12/30 01:55:38;;;;;;;;;;;6.00;99.90;;;;;;5070357;28;20430;-37
2023/12/30 01:58:04;;;;;;;;;;;6.00;99.90;;;;;;5056461;28;19925;-34
2023/12/30 02:00:31;;;;;;;;;;;6.00;99.90;;;;;;5056975;28;19925;-35
2023/12/30 02:02:58;;;;;;;;;;;6.00;99.90;;;;;;5074611;28;20327;-34
2023/12/30 02:05:24;;;;;;;;;;;6.00;99.90;;;;;;5056890;28;19950;-34
2023/12/30 02:07:52;;;;;;;;;;;6.00;99.90;;;;;;5071724;28;19986;-33
2023/12/30 02:10:19;;;;;;;;;;;6.00;99.90;;;;;;5066987;28;19970;-36
2023/12/30 02:12:45;;;;;;;;;;;6.00;99.90;;;;;;5054009;28;19924;-33
2023/12/30 02:15:13;;;;;;;;;;;6.00;99.90;;;;;;5048951;28;20454;-33
2023/12/30 02:17:39;;;;;;;;;;;6.00;99.90;;;;;;5057379;28;19974;-34
2023/12/30 02:20:06;;;;;;;;;;;6.00;99.90;;;;;;5053441;28;20390;-32
2023/12/30 02:22:33;;;;;;;;;;;6.00;99.90;;;;;;5056550;28;19982;-34
2023/12/30 02:25:01;;;;;;;;;;;6.00;99.90;;;;;;5073960;28;20357;-35
2023/12/30 02:27:27;;;;;;;;;;;6.00;99.90;;;;;;5072713;28;20338;-33
2023/12/30 02:29:54;;;;;;;;;;;6.00;99.90;;;;;;5049015;28;19928;-33
2023/12/30 02:32:21;;;;;;;;;;;6.00;99.90;;;;;;5055607;28;19924;-34
2023/12/30 02:34:47;;;;;;;;;;;6.00;99.90;;;;;;5056014;28;19924;-34
2023/12/30 02:37:14;;;;;;;;;;;6.00;99.90;;;;;;5053756;28;20410;-33
2023/12/30 02:39:40;;;;;;;;;;;6.00;99.90;;;;;;5072781;28;19964;-34
2023/12/30 02:42:08;;;;;;;;;;;6.00;99.90;;;;;;5052834;28;19928;-33
2023/12/30 02:44:35;;;;;;;;;;;6.00;99.90;;;;;;5082923;28;20029;-35
2023/12/30 02:47:02;;;;;;;;;;;5.90;99.90;;;;;;5091140;28;19981;-34
2023/12/30 02:49:28;;;;;;;;;;;6.00;99.90;;;;;;5075094;28;19993;-34
2023/12/30 02:51:57;;;;;;;;;;;6.00;99.90;;;;;;5074482;28;19931;-33
2023/12/30 02:54:23;;;;;;;;;;;6.00;99.90;;;;;;5075353;28;19924;-36
2023/12/30 02:56:50;;;;;;;;;;;6.00;99.90;;;;;;5074399;28;20453;-35
2023/12/30 02:59:18;;;;;;;;;;;6.00;99.90;;;;;;5075028;28;19928;-34
2023/12/30 03:01:45;;;;;;;;;;;6.00;99.90;;;;;;5075024;28;19989;-33
2023/12/30 03:04:11;;;;;;;;;;;5.90;99.90;;;;;;5092918;28;19969;-34
2023/12/30 03:06:38;;;;;;;;;;;5.90;99.90;;;;;;5072395;28;19981;-35
2023/12/30 03:09:04;;;;;;;;;;;5.90;99.90;;;;;;5091083;28;19986;-35
2023/12/30 03:11:31;;;;;;;;;;;5.90;99.90;;;;;;5094394;28;20001;-37
2023/12/30 03:13:58;;;;;;;;;;;5.90;99.90;;;;;;5074945;28;19977;-33
2023/12/30 03:16:26;;;;;;;;;;;5.90;99.90;;;;;;5092454;28;20024;-34
2023/12/30 03:18:52;;;;;;;;;;;5.90;99.90;;;;;;5074493;28;20020;-32
2023/12/30 03:21:19;;;;;;;;;;;5.90;99.90;;;;;;5073176;28;20049;-33
2023/12/30 03:23:46;;;;;;;;;;;5.90;99.90;;;;;;5075681;28;19924;-35
2023/12/30 03:26:13;;;;;;;;;;;5.90;99.90;;;;;;5073501;28;19924;-35
2023/12/30 03:28:39;;;;;;;;;;;5.90;99.90;;;;;;5068059;28;19967;-33
2023/12/30 03:31:07;;;;;;;;;;;6.00;99.90;;;;;;5093177;28;19924;-35
2023/12/30 03:33:35;;;;;;;;;;;6.00;99.90;;;;;;5093418;28;20015;-35
2023/12/30 03:36:01;;;;;;;;;;;5.90;99.90;;;;;;5092350;28;19928;-32
2023/12/30 03:38:28;;;;;;;;;;;6.00;99.90;;;;;;5071607;28;19977;-34
2023/12/30 03:40:56;;;;;;;;;;;6.00;99.90;;;;;;5074704;28;19928;-34
2023/12/30 03:43:23;;;;;;;;;;;5.90;99.90;;;;;;5089456;28;20430;-34
2023/12/30 03:45:50;;;;;;;;;;;5.90;99.90;;;;;;5071711;28;19970;-35
2023/12/30 03:48:17;;;;;;;;;;;5.90;99.90;;;;;;5070100;28;19928;-33
2023/12/30 03:50:45;;;;;;;;;;;5.90;99.90;;;;;;5071376;28;19928;-34
2023/12/30 03:53:12;;;;;;;;;;;5.90;99.90;;;;;;5073192;28;19925;-34
2023/12/30 03:55:38;;;;;;;;;;;5.90;99.90;;;;;;5084758;28;19986;-35
2023/12/30 03:58:05;;;;;;;;;;;5.80;99.90;;;;;;5090581;28;19928;-34
2023/12/30 04:00:32;;;;;;;;;;;5.80;99.90;;;;;;5073365;28;20825;-34
2023/12/30 04:02:58;;;;;;;;;;;5.90;99.90;;;;;;5075704;28;20314;-34
2023/12/30 04:05:25;;;;;;;;;;;5.80;99.90;;;;;;5074718;28;19928;-33
2023/12/30 04:07:53;;;;;;;;;;;5.80;99.90;;;;;;5074246;28;19985;-35
2023/12/30 04:10:20;;;;;;;;;;;5.80;99.90;;;;;;5072960;28;19924;-33
2023/12/30 04:12:46;;;;;;;;;;;5.80;99.90;;;;;;5073803;28;19985;-33
2023/12/30 04:15:13;;;;;;;;;;;5.80;99.90;;;;;;5089916;28;19931;-33
2023/12/30 04:17:39;;;;;;;;;;;5.80;99.90;;;;;;5074574;28;19924;-34
2023/12/30 04:20:07;;;;;;;;;;;5.80;99.90;;;;;;5089396;28;20371;-33
2023/12/30 04:22:33;;;;;;;;;;;5.80;99.90;;;;;;5069791;28;20412;-34
2023/12/30 04:25:02;;;;;;;;;;;5.80;99.90;;;;;;5072787;28;19935;-35
2023/12/30 04:27:29;;;;;;;;;;;5.80;99.90;;;;;;5091668;28;19932;-34
2023/12/30 04:29:55;;;;;;;;;;;5.80;99.90;;;;;;5085466;28;19924;-33
2023/12/30 04:32:22;;;;;;;;;;;5.80;99.90;;;;;;5070898;28;19950;-34
2023/12/30 04:34:49;;;;;;;;;;;5.80;99.90;;;;;;5063855;28;19925;-33
2023/12/30 04:37:15;;;;;;;;;;;5.80;99.90;;;;;;5067607;28;19924;-34
2023/12/30 04:39:42;;;;;;;;;;;5.80;99.90;;;;;;5092078;28;19954;-33
2023/12/30 04:42:10;;;;;;;;;;;5.80;99.90;;;;;;5092391;28;20334;-35
2023/12/30 04:44:37;;;;;;;;;;;5.80;99.90;;;;;;5074979;28;19928;-34
2023/12/30 04:47:03;;;;;;;;;;;5.70;99.90;;;;;;5074165;28;19963;-35
2023/12/30 04:49:30;;;;;;;;;;;5.70;99.90;;;;;;5086721;28;19977;-33
2023/12/30 04:51:57;;;;;;;;;;;5.70;99.90;;;;;;5069735;28;19928;-35
2023/12/30 04:54:25;;;;;;;;;;;5.70;99.90;;;;;;5090531;28;20449;-33
2023/12/30 04:56:52;;;;;;;;;;;5.70;99.90;;;;;;5092075;28;19924;-33
2023/12/30 04:59:20;;;;;;;;;;;5.60;99.90;;;;;;5071201;28;19930;-32
2023/12/30 05:01:46;;;;;;;;;;;5.60;99.90;;;;;;5073048;28;19989;-34
2023/12/30 05:04:13;;;;;;;;;;;5.60;99.90;;;;;;5076703;28;19971;-35
2023/12/30 05:06:40;;;;;;;;;;;5.60;99.90;;;;;;5073917;28;20018;-33
2023/12/30 05:09:08;;;;;;;;;;;5.60;99.90;;;;;;5062040;28;19967;-34
2023/12/30 05:11:35;;;;;;;;;;;5.60;99.90;;;;;;5075440;28;19934;-34
2023/12/30 05:14:01;;;;;;;;;;;5.60;99.90;;;;;;5073198;28;19981;-34
2023/12/30 05:16:29;;;;;;;;;;;5.60;99.90;;;;;;5092209;28;20425;-34
2023/12/30 05:18:56;;;;;;;;;;;5.60;99.90;;;;;;5073834;28;20380;-32
2023/12/30 05:21:23;;;;;;;;;;;5.50;99.90;;;;;;5078260;28;19970;-34
2023/12/30 05:23:49;;;;;;;;;;;5.50;99.90;;;;;;5088691;28;19977;-33
2023/12/30 05:26:16;;;;;;;;;;;5.50;99.90;;;;;;5080170;28;19950;-35
2023/12/30 05:28:43;;;;;;;;;;;5.50;99.90;;;;;;5073444;28;20000;-35
2023/12/30 05:31:09;;;;;;;;;;;5.40;99.90;;;;;;5071954;28;20402;-35
2023/12/30 05:33:37;;;;;;;;;;;5.40;99.90;;;;;;5090498;28;19973;-33
2023/12/30 05:36:04;;;;;;;;;;;5.40;99.90;;;;;;5072553;28;19977;-34
2023/12/30 05:38:30;;;;;;;;;;;5.40;99.90;;;;;;5057736;28;19969;-33
2023/12/30 05:40:57;;;;;;;;;;;5.40;99.90;;;;;;5070274;28;19959;-35
2023/12/30 05:43:24;;;;;;;;;;;5.40;99.90;;;;;;5082064;28;19969;-32
2023/12/30 05:45:50;;;;;;;;;;;5.50;99.90;;;;;;5074307;28;19988;-34
2023/12/30 05:48:17;;;;;;;;;;;5.40;99.90;;;;;;5053207;28;19924;-34
2023/12/30 05:50:45;;;;;;;;;;;5.40;99.90;;;;;;5062523;28;19947;-33
2023/12/30 05:53:12;;;;;;;;;;;5.40;99.90;;;;;;5055962;28;19928;-34
2023/12/30 05:55:39;;;;;;;;;;;5.50;99.90;;;;;;5055567;28;19934;-33
2023/12/30 05:58:05;;;;;;;;;;;5.50;99.90;;;;;;5050164;28;19972;-32
2023/12/30 06:00:32;;;;;;;;;;;5.50;99.90;;;;;;5062944;28;20318;-36
2023/12/30 06:02:59;;;;;;;;;;;5.50;99.90;;;;;;5054988;28;20339;-34
2023/12/30 06:05:25;;;;;;;;;;;5.50;99.90;;;;;;5071667;28;19924;-34
2023/12/30 06:07:53;;;;;;;;;;;5.50;99.90;;;;;;5070785;28;19925;-34
2023/12/30 06:10:20;;;;;;;;;;;5.60;99.90;;;;;;5076546;28;19976;-34
2023/12/30 06:12:47;;;;;;;;;;;5.50;99.90;;;;;;5065533;28;20015;-33
2023/12/30 06:15:13;;;;;;;;;;;5.60;99.90;;;;;;5069382;28;20422;-34
2023/12/30 06:17:40;;;;;;;;;;;5.50;99.90;;;;;;5070389;28;20501;-33
2023/12/30 06:20:07;;;;;;;;;;;5.50;99.90;;;;;;5055794;28;19928;-33
2023/12/30 06:22:34;;;;;;;;;;;5.50;99.90;;;;;;5058124;28;20430;-34
2023/12/30 06:25:03;;;;;;;;;;;5.50;99.90;;;;;;5057075;28;19977;-33
2023/12/30 06:27:30;;;;;;;;;;;5.60;99.90;;;;;;5063868;28;19948;-35
2023/12/30 06:29:56;;;;;;;;;;;5.60;99.90;;;;;;5051596;28;20368;-34
2023/12/30 06:32:23;;;;;;;;;;;5.50;99.90;;;;;;5080203;28;19924;-34
2023/12/30 06:34:50;;;;;;;;;;;5.50;99.90;;;;;;5058275;28;19928;-33
2023/12/30 06:37:16;;;;;;;;;;;5.50;99.90;;;;;;5070444;28;20001;-34
2023/12/30 06:39:43;;;;;;;;;;;5.60;99.90;;;;;;5059911;28;20419;-34
2023/12/30 06:42:11;;;;;;;;;;;5.60;99.90;;;;;;5071007;28;19974;-34
2023/12/30 06:44:38;;;;;;;;;;;5.60;99.90;;;;;;5060114;28;21176;-35
2023/12/30 06:47:05;;;;;;;;;;;5.60;99.90;;;;;;5073737;28;20303;-34
2023/12/30 06:49:32;;;;;;;;;;;5.70;99.90;;;;;;5073562;28;19934;-34
2023/12/30 06:51:59;;;;;;;;;;;5.70;99.90;;;;;;5073901;28;19928;-34
2023/12/30 06:54:25;;;;;;;;;;;5.70;99.90;;;;;;5076316;28;19977;-35
2023/12/30 06:56:53;;;;;;;;;;;5.80;99.90;;;;;;5075217;28;19924;-34
2023/12/30 06:59:21;;;;;;;;;;;5.70;99.90;;;;;;5075794;28;19971;-33
2023/12/30 07:01:48;;;;;;;;;;;5.70;99.90;;;;;;5073919;28;20341;-34
2023/12/30 07:04:14;;;;;;;;;;;5.70;99.90;;;;;;5074485;28;19924;-34
2023/12/30 07:06:41;;;;;;;;;;;5.70;99.90;;;;;;5075931;28;20441;-33
2023/12/30 07:09:08;;;;;;;;;;;5.70;99.90;;;;;;5076109;28;19928;-33
2023/12/30 07:11:34;;;;;;;;;;;5.70;99.90;;;;;;5091398;28;19934;-33
2023/12/30 07:14:01;;;;;;;;;;;5.60;99.90;;;;;;5074217;28;19932;-33
2023/12/30 07:16:29;;;;;;;;;;;5.60;99.90;;;;;;5068406;28;19971;-34
2023/12/30 07:18:56;;;;;;;;;;;5.60;99.90;;;;;;5070998;28;19928;-34
2023/12/30 07:21:22;;;;;;;;;;;5.50;99.90;;;;;;5095901;28;19985;-33
2023/12/30 07:23:49;;;;;;;;;;;5.50;99.90;;;;;;5095760;28;19966;-34
2023/12/30 07:26:16;;;;;;;;;;;5.40;99.90;;;;;;5074568;28;19924;-33
2023/12/30 07:28:42;;;;;;;;;;;5.40;99.90;;;;;;5092076;28;19928;-33
2023/12/30 07:31:09;;;;;;;;;;;5.30;99.90;;;;;;5074459;28;19928;-34
2023/12/30 07:33:37;;;;;;;;;;;5.30;99.90;;;;;;5075238;28;20414;-34
2023/12/30 07:36:06;;;;;;;;;;;5.20;99.90;;;;;;5090923;28;20019;-35
2023/12/30 07:38:32;;;;;;;;;;;5.20;99.90;;;;;;5087151;28;19939;-35
2023/12/30 07:40:59;;;;;;;;;;;5.20;99.90;;;;;;5093484;28;20288;-35
2023/12/30 07:43:26;;;;;;;;;;;5.20;99.90;;;;;;5075369;28;19975;-34
2023/12/30 07:45:52;;;;;;;;;;;5.10;99.90;;;;;;5061347;28;19982;-34
2023/12/30 07:48:19;;;;;;;;;;;5.10;99.90;;;;;;5053679;28;19985;-34
2023/12/30 07:50:47;;;;;;;;;;;5.00;99.90;;;;;;5043535;28;19928;-34
2023/12/30 07:53:14;;;;;;;;;;;5.00;99.90;;;;;;5066550;28;20368;-34
2023/12/30 07:55:41;;;;;;;;;;;5.00;99.90;;;;;;5048978;28;20276;-33
2023/12/30 07:58:07;;;;;;;;;;;4.90;99.90;;;;;;5061399;28;20013;-34
2023/12/30 08:00:34;;;;;;;;;;;4.90;99.90;;;;;;5044237;28;19933;-35
2023/12/30 08:03:01;;;;;;;;;;;4.90;99.90;;;;;;5057244;28;19977;-33
2023/12/30 08:05:27;;;;;;;;;;;4.90;99.90;;;;;;5078067;28;19924;-33
2023/12/30 08:07:55;;;;;;;;;;;4.90;99.90;;;;;;5053814;28;20377;-33
2023/12/30 08:10:23;;;;;;;;;;;4.80;99.90;;;;;;5053890;28;19928;-34
2023/12/30 08:12:50;;;;;;;;;;;4.80;99.90;;;;;;5055987;28;20317;-33
2023/12/30 08:15:17;;;;;;;;;;;4.80;99.90;;;;;;5067443;28;19924;-34
2023/12/30 08:17:43;;;;;;;;;;;4.80;99.90;;;;;;5043346;28;19924;-34
2023/12/30 08:20:11;;;;;;;;;;;4.80;99.90;;;;;;5059066;28;19980;-35
2023/12/30 08:22:37;;;;;;;;;;;4.80;99.90;;;;;;5054793;28;20369;-34
2023/12/30 08:25:06;;;;;;;;;;;4.90;99.90;;;;;;5054641;28;19978;-34
2023/12/30 08:27:33;;;;;;;;;;;4.90;99.90;;;;;;5071002;28;20395;-35
2023/12/30 08:30:00;;;;;;;;;;;4.90;99.90;;;;;;5057244;28;19975;-33
2023/12/30 08:32:27;;;;;;;;;;;4.90;99.90;;;;;;5057527;28;19981;-35
2023/12/30 08:34:54;;;;;;;;;;;4.90;99.90;;;;;;5068743;28;19967;-34
2023/12/30 08:37:20;;;;;;;;;;;4.90;99.90;;;;;;5049231;28;20696;-35
2023/12/30 08:39:47;;;;;;;;;;;5.00;99.90;;;;;;5064963;28;19971;-34
2023/12/30 08:42:15;;;;;;;;;;;4.90;99.90;;;;;;5049386;28;19977;-34
2023/12/30 08:44:43;;;;;;;;;;;5.00;99.90;;;;;;5059589;28;19924;-33
2023/12/30 08:47:10;;;;;;;;;;;5.00;99.90;;;;;;5051509;28;19936;-33
2023/12/30 08:49:37;;;;;;;;;;;5.00;99.90;;;;;;5064787;28;19930;-33
2023/12/30 08:52:04;;;;;;;;;;;5.00;99.90;;;;;;5062445;28;19985;-34
2023/12/30 08:54:31;;;;;;;;;;;5.00;99.90;;;;;;5061595;28;19935;-34
2023/12/30 08:56:57;;;;;;;;;;;5.00;99.90;;;;;;5058784;28;19924;-33
2023/12/30 08:59:25;;;;;;;;;;;5.00;99.90;;;;;;5059108;28;19969;-36
2023/12/30 09:01:52;;;;;;;;;;;5.10;99.90;;;;;;5073034;28;19924;-34
2023/12/30 09:04:19;;;;;;;;;;;5.10;99.90;;;;;;5048120;28;19997;-33
2023/12/30 09:06:45;;;;;;;;;;;5.20;99.90;;;;;;5051476;28;19963;-34
2023/12/30 09:09:12;;;;;;;;;;;5.20;99.90;;;;;;5072207;28;19924;-34
2023/12/30 09:11:39;;;;;;;;;;;5.20;99.90;;;;;;5063782;28;19933;-34
2023/12/30 09:14:06;;;;;;;;;;;5.20;99.90;;;;;;5070345;28;20030;-34
2023/12/30 09:16:34;;;;;;;;;;;5.30;99.90;;;;;;5064735;28;19964;-36
2023/12/30 09:19:00;;;;;;;;;;;5.20;99.90;;;;;;5053056;28;19976;-34
2023/12/30 09:21:29;;;;;;;;;;;5.30;99.90;;;;;;5047706;28;19967;-34
2023/12/30 09:23:56;;;;;;;;;;;5.30;99.90;;;;;;5049257;28;19967;-34
2023/12/30 09:26:22;;;;;;;;;;;5.30;99.90;;;;;;5045541;28;20007;-34
2023/12/30 09:28:49;;;;;;;;;;;5.30;99.90;;;;;;5045903;28;19933;-33
2023/12/30 09:31:16;;;;;;;;;;;5.40;99.90;;;;;;5054133;28;19970;-32
2023/12/30 09:33:44;;;;;;;;;;;5.40;99.90;;;;;;5049071;28;19986;-34
2023/12/30 09:36:10;;;;;;;;;;;5.40;99.90;;;;;;5050384;28;19981;-33
2023/12/30 09:38:37;;;;;;;;;;;5.50;99.90;;;;;;5069318;28;19970;-33
2023/12/30 09:41:04;;;;;;;;;;;5.50;99.90;;;;;;5062541;28;20298;-33
2023/12/30 09:43:31;;;;;;;;;;;5.50;99.90;;;;;;5054856;28;19924;-36
2023/12/30 09:45:58;;;;;;;;;;;5.50;99.90;;;;;;5049296;28;19933;-32
2023/12/30 09:48:25;;;;;;;;;;;5.60;99.90;;;;;;5066336;28;19971;-35
2023/12/30 09:50:53;;;;;;;;;;;5.60;99.90;;;;;;5038299;28;19939;-32
2023/12/30 09:53:22;;;;;;;;;;;5.70;99.90;;;;;;5046687;28;19992;-35
2023/12/30 09:55:48;;;;;;;;;;;5.70;99.90;;;;;;5048578;28;19924;-35
2023/12/30 09:58:15;;;;;;;;;;;5.80;99.90;;;;;;5056638;28;19928;-34
2023/12/30 10:00:42;;;;;;;;;;;5.80;99.90;;;;;;5052503;28;20006;-35
2023/12/30 10:03:09;;;;;;;;;;;5.90;99.90;;;;;;5053468;28;20385;-34
2023/12/30 10:05:35;;;;;;;;;;;5.90;99.90;;;;;;5073410;28;19924;-35
2023/12/30 10:08:04;;;;;;;;;;;6.00;99.90;;;;;;5074114;28;20017;-34
2023/12/30 10:10:41;;;;;;;;;;;6.00;99.90;;;;;;5066788;28;19933;-35
2023/12/30 10:13:07;;;;;;;;;;;6.10;99.90;;;;;;5054956;28;19924;-35
2023/12/30 10:15:34;;;;;;;;;;;6.10;99.90;;;;;;5072066;28;19963;-33
2023/12/30 10:18:01;;;;;;;;;;;6.10;99.90;;;;;;5061788;28;20360;-35
2023/12/30 10:20:27;;;;;;;;;;;6.20;99.90;;;;;;5077987;28;19990;-34
2023/12/30 10:22:54;;;;;;;;;;;6.20;99.90;;;;;;5059223;28;19925;-34
2023/12/30 10:25:22;;;;;;;;;;;6.20;99.90;;;;;;5051772;28;19967;-34
2023/12/30 10:27:49;;;;;;;;;;;6.30;99.90;;;;;;5054307;28;19979;-34
2023/12/30 10:30:16;;;;;;;;;;;6.30;99.90;;;;;;5059408;28;19924;-34
2023/12/30 10:32:43;;;;;;;;;;;6.30;99.90;;;;;;5049180;28;20342;-32
2023/12/30 10:35:09;;;;;;;;;;;6.30;99.90;;;;;;5078093;28;19928;-33
2023/12/30 10:38:39;;;;;;;;;;;6.30;99.90;;;;;;5026740;22;1934443;-35
2023/12/30 10:41:05;;;;;;;;;;;6.40;99.90;;;;;;5080363;28;19937;-32
2023/12/30 10:43:32;;;;;;;;;;;6.50;99.90;;;;;;5081086;28;19978;-36
2023/12/30 10:45:59;;;;;;;;;;;6.50;99.90;;;;;;5081492;28;19970;-34
2023/12/30 10:48:27;;;;;;;;;;;6.50;99.90;;;;;;5083813;28;20525;-33
2023/12/30 10:50:54;;;;;;;;;;;6.60;99.90;;;;;;5081919;28;20350;-33
2023/12/30 10:53:21;;;;;;;;;;;6.70;99.90;;;;;;5081842;28;19924;-33
2023/12/30 10:55:50;;;;;;;;;;;6.70;99.90;;;;;;5078959;28;19970;-33
2023/12/30 10:58:17;;;;;;;;;;;6.70;99.90;;;;;;5080736;28;20009;-33
2023/12/30 11:00:44;;;;;;;;;;;6.70;99.90;;;;;;5081324;28;19951;-34
2023/12/30 11:03:11;;;;;;;;;;;6.70;99.90;;;;;;5083513;28;19924;-35
2023/12/30 11:05:39;;;;;;;;;;;6.70;99.90;;;;;;5082646;28;19924;-34
2023/12/30 11:08:06;;;;;;;;;;;6.90;99.90;;;;;;5080376;28;19924;-35
2023/12/30 11:10:33;;;;;;;;;;;6.90;99.90;;;;;;5084835;28;19924;-36
2023/12/30 11:13:01;;;;;;;;;;;6.90;99.90;;;;;;5082651;28;19933;-33
2023/12/30 11:15:28;;;;;;;;;;;7.00;99.90;;;;;;5082626;28;20412;-33
2023/12/30 11:17:56;;;;;;;;;;;7.00;99.90;;;;;;5073413;28;20268;-32
2023/12/30 11:20:24;;;;;;;;;;;7.00;99.90;;;;;;5078680;28;19936;-32
2023/12/30 11:22:51;;;;;;;;;;;7.00;99.90;;;;;;5080664;28;19986;-33
2023/12/30 11:25:18;;;;;;;;;;;7.10;99.90;;;;;;5083438;28;19924;-33
2023/12/30 11:27:47;;;;;;;;;;;7.20;99.90;;;;;;5083889;28;19979;-34
2023/12/30 11:30:17;;;;;;;;;;;7.20;99.90;;;;;;5075588;28;19928;-35
2023/12/30 11:32:44;;;;;;;;;;;7.30;99.90;;;;;;5081061;28;20376;-34
2023/12/30 11:35:12;;;;;;;;;;;7.40;99.90;;;;;;5081481;28;19982;-34
2023/12/30 11:37:39;;;;;;;;;;;7.50;99.90;;;;;;5076807;28;19925;-34
2023/12/30 11:40:09;;;;;;;;;;;7.60;99.90;;;;;;5077524;28;19925;-33
2023/12/30 11:42:35;;;;;;;;;;;7.70;99.90;;;;;;5076558;28;20003;-33
2023/12/30 11:45:02;;;;;;;;;;;7.80;99.90;;;;;;5077101;28;19978;-34
2023/12/30 11:47:30;;;;;;;;;;;7.90;99.90;;;;;;5077307;28;19925;-33
2023/12/30 11:50:01;;;;;;;;;;;7.90;99.90;;;;;;5062369;28;19933;-34
2023/12/30 11:52:28;;;;;;;;;;;8.00;99.90;;;;;;5066061;28;19986;-34
2023/12/30 11:54:54;;;;;;;;;;;8.00;99.90;;;;;;5061377;28;20438;-33
2023/12/30 11:57:21;;;;;;;;;;;8.10;99.90;;;;;;5062970;28;20372;-35
2023/12/30 11:59:48;;;;;;;;;;;8.10;99.90;;;;;;5063481;28;19928;-35
2023/12/30 12:02:15;;;;;;;;;;;8.10;99.90;;;;;;5062339;28;19993;-33
2023/12/30 12:04:43;;;;;;;;;;;8.10;99.90;;;;;;5064080;28;20624;-33
2023/12/30 12:07:10;;;;;;;;;;;8.10;99.90;;;;;;5065004;28;19924;-34
2023/12/30 12:09:40;;;;;;;;;;;8.10;99.90;;;;;;5063985;28;19984;-34
2023/12/30 12:12:07;;;;;;;;;;;8.10;99.90;;;;;;5061873;28;20043;-33
2023/12/30 12:14:34;;;;;;;;;;;8.20;99.90;;;;;;5062984;28;19924;-34
2023/12/30 12:17:03;;;;;;;;;;;8.20;99.90;;;;;;5061674;28;20021;-33
2023/12/30 12:19:30;;;;;;;;;;;8.30;99.90;;;;;;5061224;28;20105;-33
2023/12/30 12:22:00;;;;;;;;;;;8.20;99.90;;;;;;5061992;28;19952;-33
2023/12/30 12:24:27;;;;;;;;;;;8.30;99.90;;;;;;5062456;28;19929;-33
2023/12/30 12:26:54;;;;;;;;;;;8.30;99.90;;;;;;5061939;28;21257;-33
2023/12/30 12:29:20;;;;;;;;;;;8.30;99.90;;;;;;5068351;28;20420;-34
2023/12/30 12:31:47;;;;;;;;;;;8.40;99.90;;;;;;5067071;28;19947;-34
2023/12/30 12:34:20;;;;;;;;;;;8.30;99.90;;;;;;5067464;28;20461;-34
2023/12/30 12:36:47;;;;;;;;;;;8.40;99.90;;;;;;5063404;28;20031;-34
2023/12/30 12:39:16;;;;;;;;;;;8.40;99.90;;;;;;5066201;28;19925;-34
2023/12/30 12:41:43;;;;;;;;;;;8.40;99.90;;;;;;5065132;28;20353;-36
2023/12/30 12:44:09;;;;;;;;;;;8.40;99.90;;;;;;5065144;28;20447;-34
2023/12/30 12:46:36;;;;;;;;;;;8.40;99.90;;;;;;5063475;28;20359;-35
2023/12/30 12:49:03;;;;;;;;;;;8.40;99.90;;;;;;5065520;28;19955;-34
2023/12/30 12:51:32;;;;;;;;;;;8.40;99.90;;;;;;5066339;28;19964;-34
2023/12/30 12:53:58;;;;;;;;;;;8.30;99.90;;;;;;5066986;28;19925;-34
2023/12/30 12:56:26;;;;;;;;;;;8.30;99.90;;;;;;5069516;28;19928;-35
2023/12/30 12:58:53;;;;;;;;;;;8.30;99.90;;;;;;5065532;28;19993;-37
2023/12/30 13:01:22;;;;;;;;;;;8.30;99.90;;;;;;5067541;28;19924;-34
2023/12/30 13:03:49;;;;;;;;;;;8.30;99.90;;;;;;5067114;28;19924;-35
2023/12/30 13:06:16;;;;;;;;;;;8.30;99.90;;;;;;5067400;28;20295;-34
2023/12/30 13:08:44;;;;;;;;;;;8.30;99.90;;;;;;5066509;28;19925;-33
2023/12/30 13:11:10;;;;;;;;;;;8.30;99.90;;;;;;5064820;28;19925;-34
2023/12/30 13:13:38;;;;;;;;;;;8.30;99.90;;;;;;5057971;28;19933;-35
2023/12/30 13:16:05;;;;;;;;;;;8.30;99.90;;;;;;5067194;28;19932;-35
2023/12/30 13:18:32;;;;;;;;;;;8.30;99.90;;;;;;5068453;28;20038;-34
2023/12/30 13:20:59;;;;;;;;;;;8.30;99.90;;;;;;5066917;28;19933;-33
2023/12/30 13:23:26;;;;;;;;;;;8.40;99.90;;;;;;5045280;28;19940;-34
2023/12/30 13:25:52;;;;;;;;;;;8.40;99.90;;;;;;5064940;28;19931;-35
2023/12/30 13:28:19;;;;;;;;;;;8.40;99.90;;;;;;5067966;28;19932;-33
2023/12/30 13:30:47;;;;;;;;;;;8.40;99.90;;;;;;5066590;28;19928;-34
2023/12/30 13:33:16;;;;;;;;;;;8.40;99.90;;;;;;5065512;28;20089;-34
2023/12/30 13:35:43;;;;;;;;;;;8.40;99.90;;;;;;5063304;28;19929;-33
2023/12/30 13:38:13;;;;;;;;;;;8.40;99.90;;;;;;5064490;28;19924;-34
2023/12/30 13:40:40;;;;;;;;;;;8.50;99.90;;;;;;5065228;28;19925;-34
2023/12/30 13:43:09;;;;;;;;;;;8.50;99.90;;;;;;5063266;28;21096;-34
2023/12/30 13:45:37;;;;;;;;;;;8.50;99.90;;;;;;5065222;28;20386;-33
2023/12/30 13:48:41;;;;;;;;;;;8.50;99.90;;;;;;5053715;28;19976;-35
2023/12/30 13:51:08;;;;;;;;;;;8.50;99.90;;;;;;5065768;28;20356;-35
2023/12/30 13:53:34;;;;;;;;;;;8.40;99.90;;;;;;5061309;28;20017;-34
2023/12/30 13:56:04;;;;;;;;;;;8.50;99.90;;;;;;5060872;28;20469;-35
2023/12/30 13:58:31;;;;;;;;;;;8.40;99.90;;;;;;5063244;28;20547;-35
2023/12/30 14:00:58;;;;;;;;;;;8.40;99.90;;;;;;5065132;28;19928;-34
2023/12/30 14:03:27;;;;;;;;;;;8.40;99.90;;;;;;5063874;28;20248;-34
2023/12/30 14:05:53;;;;;;;;;;;8.40;99.90;;;;;;5063071;28;20308;-33
2023/12/30 14:08:31;;;;;;;;;;;8.40;99.90;;;;;;5064114;28;20392;-35
2023/12/30 14:11:05;;;;;;;;;;;8.40;99.90;;;;;;5063569;28;19928;-34
2023/12/30 14:13:32;;;;;;;;;;;8.40;99.90;;;;;;5063958;28;20407;-34
2023/12/30 14:15:58;;;;;;;;;;;8.40;99.90;;;;;;5066516;28;20311;-34
2023/12/30 14:18:26;;;;;;;;;;;8.40;99.90;;;;;;5064686;28;20383;-33
2023/12/30 14:20:53;;;;;;;;;;;8.30;99.90;;;;;;5066108;28;19925;-34
2023/12/30 14:23:20;;;;;;;;;;;8.40;99.90;;;;;;5066316;28;19929;-35
2023/12/30 14:25:47;;;;;;;;;;;8.30;99.90;;;;;;5061704;28;20772;-34
2023/12/30 14:28:13;;;;;;;;;;;8.40;99.90;;;;;;5067197;28;19978;-35
2023/12/30 14:30:40;;;;;;;;;;;8.30;99.90;;;;;;5067053;28;19971;-35